createdAt,value
2023-07-26T00:02:23.713Z,99178.66
2023-07-26T00:05:26.143Z,99178.97
2023-07-26T00:08:28.452Z,99198.94
2023-07-26T00:11:31.078Z,99220.75
2023-07-26T00:14:33.690Z,99229.19
2023-07-26T00:17:36.148Z,99239.66
2023-07-26T00:20:38.563Z,99238.13
2023-07-26T00:23:40.966Z,99238.88
2023-07-26T00:26:43.350Z,99249.94
2023-07-26T00:29:45.788Z,99249.94
2023-07-26T00:32:48.185Z,99259.16
2023-07-26T00:35:50.562Z,99249.94
2023-07-26T00:38:52.904Z,99225.63
2023-07-26T00:41:55.278Z,99224.28
2023-07-26T00:44:57.624Z,99230.09
2023-07-26T00:48:00.070Z,99223.50
2023-07-26T00:51:03.129Z,99215.66
2023-07-26T00:54:07.098Z,99215.50
2023-07-26T00:57:10.298Z,99221.34
2023-07-26T01:00:13.545Z,99210.44
2023-07-26T01:03:16.086Z,99192.47
2023-07-26T01:06:33.663Z,99194.94
2023-07-26T01:09:38.947Z,99194.94
2023-07-26T01:12:47.655Z,99168.03
2023-07-26T01:15:50.865Z,99173.28
2023-07-26T01:18:54.157Z,99163.13
2023-07-26T01:21:56.566Z,99156.81
2023-07-26T01:24:59.024Z,99162.97
2023-07-26T01:28:01.682Z,99173.13
2023-07-26T01:31:05.251Z,99146.38
2023-07-26T01:34:09.318Z,99143.00
2023-07-26T01:37:12.192Z,99152.06
2023-07-26T01:40:15.726Z,99158.69
2023-07-26T01:43:18.820Z,99142.69
2023-07-26T01:46:21.277Z,99160.66
2023-07-26T01:49:23.768Z,99159.91
2023-07-26T01:52:26.109Z,99147.31
2023-07-26T01:55:30.340Z,99145.00
2023-07-26T01:58:32.756Z,99139.47
2023-07-26T02:01:35.443Z,99119.34
2023-07-26T02:04:39.323Z,99134.41
2023-07-26T02:07:41.784Z,99131.47
2023-07-26T02:10:44.462Z,99164.81
2023-07-26T02:13:46.821Z,99149.88
2023-07-26T02:16:49.204Z,99174.63
2023-07-26T02:19:51.563Z,99180.00
2023-07-26T02:22:54.600Z,99185.97
2023-07-26T02:25:56.939Z,99182.44
2023-07-26T02:28:59.305Z,99181.06
2023-07-26T02:32:01.802Z,99195.50
2023-07-26T02:35:04.493Z,99186.09
2023-07-26T02:38:06.896Z,99202.41
2023-07-26T02:41:10.772Z,99187.63
2023-07-26T02:44:14.645Z,99189.31
2023-07-26T02:47:17.045Z,99203.94
2023-07-26T02:50:19.496Z,99207.91
2023-07-26T02:53:22.523Z,99205.44
2023-07-26T02:56:24.964Z,99216.66
2023-07-26T02:59:27.338Z,99212.06
2023-07-26T03:02:29.753Z,99216.34
2023-07-26T03:05:32.309Z,99206.03
2023-07-26T03:08:34.690Z,99216.03
2023-07-26T03:11:37.585Z,99209.59
2023-07-26T03:14:41.948Z,99201.44
2023-07-26T03:17:44.912Z,99193.78
2023-07-26T03:20:47.718Z,99185.31
2023-07-26T03:23:50.144Z,99190.41
2023-07-26T03:26:53.248Z,99188.84
2023-07-26T03:29:57.516Z,99200.09
2023-07-26T03:32:59.939Z,99196.38
2023-07-26T03:36:03.698Z,99211.91
2023-07-26T03:39:06.166Z,99205.28
2023-07-26T03:42:08.975Z,99215.13
2023-07-26T03:45:11.368Z,99218.97
2023-07-26T03:48:13.958Z,99226.03
2023-07-26T03:51:16.857Z,99213.72
2023-07-26T03:54:19.371Z,99203.75
2023-07-26T03:57:21.849Z,99220.66
2023-07-26T04:00:24.259Z,99212.00
2023-07-26T04:03:28.249Z,99241.84
2023-07-26T04:06:31.198Z,99252.75
2023-07-26T04:09:33.961Z,99254.31
2023-07-26T04:12:36.323Z,99269.97
2023-07-26T04:15:40.458Z,99260.09
2023-07-26T04:18:43.039Z,99273.34
2023-07-26T04:21:45.432Z,99264.44
2023-07-26T04:24:47.957Z,99267.53
2023-07-26T04:27:50.430Z,99273.81
2023-07-26T04:30:55.003Z,99278.25
2023-07-26T04:33:57.762Z,99292.25
2023-07-26T04:37:00.178Z,99292.84
2023-07-26T04:40:02.699Z,99297.47
2023-07-26T04:43:05.355Z,99277.78
2023-07-26T04:46:07.749Z,99284.97
2023-07-26T04:49:10.196Z,99287.59
2023-07-26T04:52:12.557Z,99296.06
2023-07-26T04:55:14.958Z,99288.50
2023-07-26T04:58:18.031Z,99286.69
2023-07-26T05:01:21.162Z,99275.31
2023-07-26T05:04:23.645Z,99271.97
2023-07-26T05:07:26.189Z,99259.97
2023-07-26T05:10:28.665Z,99263.81
2023-07-26T05:13:31.032Z,99263.50
2023-07-26T05:16:33.462Z,99277.66
2023-07-26T05:19:36.129Z,99273.22
2023-07-26T05:22:38.511Z,99279.53
2023-07-26T05:25:43.471Z,99266.00
2023-07-26T05:28:45.852Z,99279.38
2023-07-26T05:31:48.243Z,99290.44
2023-07-26T05:35:00.555Z,99277.66
2023-07-26T05:38:03.678Z,99276.72
2023-07-26T05:41:06.535Z,99296.75
2023-07-26T05:44:09.467Z,99284.28
2023-07-26T05:47:12.366Z,99298.75
2023-07-26T05:50:15.770Z,99307.47
2023-07-26T05:53:18.153Z,99296.72
2023-07-26T05:56:20.700Z,99310.56
2023-07-26T05:59:23.072Z,99290.09
2023-07-26T06:02:25.534Z,99314.38
2023-07-26T06:05:28.427Z,99310.84
2023-07-26T06:08:30.801Z,99317.44
2023-07-26T06:11:37.654Z,99317.63
2023-07-26T06:14:46.386Z,99320.56
2023-07-26T06:17:48.812Z,99321.78
2023-07-26T06:20:51.152Z,99326.38
2023-07-26T06:23:53.530Z,99321.63
2023-07-26T06:26:56.096Z,99329.00
2023-07-26T06:29:58.527Z,99335.31
2023-07-26T06:33:00.993Z,99344.81
2023-07-26T06:50:11.020Z,99344.72
2023-07-26T06:53:13.646Z,99346.13
2023-07-26T06:56:16.109Z,99337.34
2023-07-26T06:59:18.456Z,99328.56
2023-07-26T07:02:21.060Z,99350.91
2023-07-26T07:05:24.140Z,99351.47
2023-07-26T07:08:27.111Z,99349.94
2023-07-26T07:11:29.528Z,99356.06
2023-07-26T07:14:31.912Z,99351.44
2023-07-26T07:17:34.581Z,99382.84
2023-07-26T07:20:36.995Z,99367.44
2023-07-26T07:23:39.361Z,99387.91
2023-07-26T07:26:41.720Z,99396.97
2023-07-26T07:29:44.137Z,99400.06
2023-07-26T07:32:46.610Z,99396.19
2023-07-26T07:35:49.063Z,99388.38
2023-07-26T07:38:51.445Z,99395.75
2023-07-26T07:41:53.839Z,99390.69
2023-07-26T07:44:56.232Z,99402.38
2023-07-26T07:47:58.718Z,99406.81
2023-07-26T07:51:01.152Z,99396.03
2023-07-26T07:54:03.731Z,99409.13
2023-07-26T07:57:06.483Z,99420.75
2023-07-26T08:00:11.499Z,99412.53
2023-07-26T08:03:16.867Z,99418.06
2023-07-26T08:06:19.331Z,99449.31
2023-07-26T08:09:21.717Z,99447.00
2023-07-26T08:12:24.072Z,99452.97
2023-07-26T08:15:28.355Z,99464.16
2023-07-26T08:18:30.781Z,99451.81
2023-07-26T08:21:33.350Z,99453.16
2023-07-26T08:24:35.890Z,99459.53
2023-07-26T08:27:39.050Z,99456.88
2023-07-26T08:30:42.275Z,99463.06
2023-07-26T08:33:44.727Z,99461.38
2023-07-26T08:36:47.202Z,99444.75
2023-07-26T08:39:49.549Z,99452.44
2023-07-26T08:42:51.960Z,99470.44
2023-07-26T08:45:55.142Z,99433.38
2023-07-26T08:48:58.290Z,99468.38
2023-07-26T08:52:03.571Z,99462.88
2023-07-26T08:55:11.182Z,99469.75
2023-07-26T08:58:13.532Z,99454.44
2023-07-26T09:01:16.029Z,99472.09
2023-07-26T09:04:18.465Z,99495.19
2023-07-26T09:07:20.917Z,99472.34
2023-07-26T09:10:24.798Z,99475.34
2023-07-26T09:13:27.180Z,99496.09
2023-07-26T09:16:30.828Z,99507.91
2023-07-26T09:19:35.016Z,99512.78
2023-07-26T09:22:38.041Z,99521.28
2023-07-26T09:25:45.337Z,99528.16
2023-07-26T09:28:54.611Z,99526.47
2023-07-26T09:31:57.201Z,99538.97
2023-07-26T09:35:01.496Z,99540.28
2023-07-26T09:38:12.189Z,99528.72
2023-07-26T09:41:27.139Z,99528.59
2023-07-26T09:44:29.547Z,99544.59
2023-07-26T09:47:40.622Z,99518.31
2023-07-26T09:50:45.430Z,99517.53
2023-07-26T09:53:48.671Z,99521.41
2023-07-26T09:56:52.230Z,99521.25
2023-07-26T10:00:02.739Z,99508.66
2023-07-26T10:03:07.928Z,99516.59
2023-07-26T10:06:10.448Z,99514.50
2023-07-26T10:09:16.939Z,99517.16
2023-07-26T10:12:21.414Z,99505.97
2023-07-26T10:15:25.970Z,99500.56
2023-07-26T10:18:29.948Z,99513.56
2023-07-26T10:21:32.960Z,99524.50
2023-07-26T10:24:37.797Z,99533.56
2023-07-26T10:27:41.468Z,99541.84
2023-07-26T10:30:44.209Z,99548.81
2023-07-26T10:33:46.854Z,99551.88
2023-07-26T10:36:49.375Z,99554.97
2023-07-26T10:39:51.859Z,99544.16
2023-07-26T10:42:54.230Z,99543.59
2023-07-26T10:45:56.818Z,99524.94
2023-07-26T10:48:59.202Z,99522.81
2023-07-26T10:52:04.048Z,99537.03
2023-07-26T10:55:25.075Z,99535.94
2023-07-26T10:58:27.462Z,99533.00
2023-07-26T11:01:31.980Z,99554.09
2023-07-26T11:04:34.459Z,99548.69
2023-07-26T11:08:01.734Z,99558.59
2023-07-26T11:11:04.146Z,99545.59
2023-07-26T11:14:17.502Z,99553.97
2023-07-26T11:17:19.874Z,99551.31
2023-07-26T11:20:22.333Z,99575.25
2023-07-26T11:23:28.265Z,99567.84
2023-07-26T11:26:31.359Z,99580.13
2023-07-26T11:29:37.042Z,99564.69
2023-07-26T11:32:52.850Z,99584.00
2023-07-26T11:35:55.410Z,99571.19
2023-07-26T11:38:57.811Z,99574.81
2023-07-26T11:42:00.215Z,99564.19
2023-07-26T11:45:09.185Z,99556.91
2023-07-26T11:48:12.199Z,99552.56
2023-07-26T11:51:14.627Z,99560.41
2023-07-26T11:54:18.218Z,99555.44
2023-07-26T11:57:21.859Z,99547.78
2023-07-26T12:00:24.417Z,99547.59
2023-07-26T12:03:28.179Z,99563.03
2023-07-26T12:06:34.691Z,99553.66
2023-07-26T12:09:47.150Z,99564.25
2023-07-26T12:12:49.718Z,99579.50
2023-07-26T12:15:56.733Z,99574.75
2023-07-26T12:19:02.073Z,99553.31
2023-07-26T12:22:05.357Z,99558.72
2023-07-26T12:25:08.573Z,99556.53
2023-07-26T12:28:11.055Z,99559.75
2023-07-26T12:31:21.568Z,99568.56
2023-07-26T12:34:32.864Z,99575.50
2023-07-26T12:37:35.303Z,99553.44
2023-07-26T12:40:38.000Z,99576.28
2023-07-26T12:43:41.377Z,99551.13
2023-07-26T12:47:18.927Z,99576.72
2023-07-26T12:50:08.591Z,99582.72
2023-07-26T12:53:14.434Z,99586.63
2023-07-26T12:56:17.071Z,99588.25
2023-07-26T12:59:19.445Z,99593.91
2023-07-26T13:02:21.918Z,99590.56
2023-07-26T13:05:24.427Z,99594.09
2023-07-26T13:08:27.057Z,99587.78
2023-07-26T13:11:30.235Z,99578.22
2023-07-26T13:14:32.748Z,99599.63
2023-07-26T13:17:35.173Z,99592.22
2023-07-26T13:20:37.673Z,99597.31
2023-07-26T13:23:40.142Z,99597.44
2023-07-26T13:26:42.518Z,99587.41
2023-07-26T13:29:44.855Z,99604.38
2023-07-26T13:32:47.333Z,99602.06
2023-07-26T13:35:50.242Z,99600.00
2023-07-26T13:38:52.734Z,99612.81
2023-07-26T13:41:55.141Z,99606.31
2023-07-26T13:44:57.945Z,99613.91
2023-07-26T13:48:00.358Z,99600.34
2023-07-26T13:51:03.285Z,99617.13
2023-07-26T13:54:06.217Z,99609.97
2023-07-26T13:57:12.369Z,99603.66
2023-07-26T14:00:16.692Z,99602.44
2023-07-26T14:03:19.120Z,99619.25
2023-07-26T14:06:21.551Z,99622.44
2023-07-26T14:09:23.948Z,99628.44
2023-07-26T14:12:26.391Z,99608.16
2023-07-26T14:15:28.869Z,99615.88
2023-07-26T14:18:31.267Z,99615.22
2023-07-26T14:21:33.633Z,99633.88
2023-07-26T14:24:36.086Z,99631.22
2023-07-26T14:27:38.488Z,99625.72
2023-07-26T14:30:40.985Z,99613.78
2023-07-26T14:33:43.944Z,99613.22
2023-07-26T14:36:46.381Z,99608.06
2023-07-26T14:39:50.919Z,99616.56
2023-07-26T14:42:53.443Z,99633.78
2023-07-26T14:45:55.849Z,99636.34
2023-07-26T14:48:58.244Z,99625.53
2023-07-26T14:52:00.659Z,99624.09
2023-07-26T14:55:03.312Z,99651.94
2023-07-26T14:58:05.806Z,99668.19
2023-07-26T15:01:08.295Z,99666.97
2023-07-26T15:04:10.963Z,99649.06
2023-07-26T15:07:14.068Z,99654.38
2023-07-26T15:10:21.513Z,99678.91
2023-07-26T15:13:24.651Z,99673.94
2023-07-26T15:16:27.161Z,99681.22
2023-07-26T15:19:29.626Z,99693.94
2023-07-26T15:22:34.797Z,99700.69
2023-07-26T15:25:37.206Z,99689.88
2023-07-26T15:28:39.608Z,99707.34
2023-07-26T15:31:42.002Z,99716.75
2023-07-26T15:34:44.408Z,99725.03
2023-07-26T15:37:47.672Z,99725.91
2023-07-26T15:40:50.266Z,99739.28
2023-07-26T15:47:14.998Z,99742.94
2023-07-26T15:50:17.497Z,99736.88
2023-07-26T15:53:19.872Z,99738.53
2023-07-26T15:56:23.907Z,99743.59
2023-07-26T15:59:26.432Z,99745.25
2023-07-26T16:02:29.483Z,99753.88
2023-07-26T16:14:49.037Z,99749.44
2023-07-26T16:24:04.334Z,99751.19
2023-07-26T16:27:07.513Z,99762.25
2023-07-26T16:30:10.164Z,99779.16
2023-07-26T16:33:12.632Z,99771.41
2023-07-26T16:36:15.015Z,99766.88
2023-07-26T16:39:17.426Z,99788.75
2023-07-26T16:42:19.906Z,99789.19
2023-07-26T16:45:22.356Z,99797.16
2023-07-26T16:48:25.650Z,99783.31
2023-07-26T16:51:28.124Z,99812.63
2023-07-26T16:54:30.510Z,99783.75
2023-07-26T16:57:32.938Z,99793.59
2023-07-26T17:00:36.165Z,99812.47
2023-07-26T17:03:38.653Z,99820.66
2023-07-26T17:06:41.187Z,99820.75
2023-07-26T17:10:02.000Z,99813.00
2023-07-26T17:13:04.399Z,99824.75
2023-07-26T17:16:06.898Z,99825.19
2023-07-26T17:19:09.494Z,99804.25
2023-07-26T17:22:11.878Z,99829.25
2023-07-26T17:25:14.321Z,99827.47
2023-07-26T17:28:16.710Z,99833.66
2023-07-26T17:31:19.236Z,99825.13
2023-07-26T17:34:21.638Z,99838.06
2023-07-26T17:37:23.998Z,99834.47
2023-07-26T17:40:30.871Z,99836.91
2023-07-26T17:43:34.559Z,99859.91
2023-07-26T17:46:36.953Z,99845.63
2023-07-26T17:49:39.384Z,99859.00
2023-07-26T17:52:42.232Z,99862.97
2023-07-26T17:55:44.577Z,99869.59
2023-07-26T17:58:47.122Z,99870.81
2023-07-26T18:01:53.361Z,99875.66
2023-07-26T18:04:55.781Z,99876.59
2023-07-26T18:07:58.135Z,99881.16
2023-07-26T18:11:00.544Z,99870.84
2023-07-26T18:14:03.088Z,99888.75
2023-07-26T18:17:05.679Z,99887.31
2023-07-26T18:20:08.884Z,99902.22
2023-07-26T18:23:11.309Z,99914.13
2023-07-26T18:26:15.048Z,99905.66
2023-07-26T18:29:17.417Z,99907.81
2023-07-26T18:32:19.780Z,99917.91
2023-07-26T18:35:22.129Z,99928.59
2023-07-26T18:38:25.169Z,99930.84
2023-07-26T18:41:27.576Z,99945.41
2023-07-26T18:44:30.135Z,99947.91
2023-07-26T18:47:32.643Z,99951.88
2023-07-26T18:50:35.167Z,99965.69
2023-07-26T18:53:37.723Z,99977.91
2023-07-26T18:56:40.250Z,99974.81
2023-07-26T18:59:42.654Z,99991.03
2023-07-26T19:02:46.102Z,99992.03
2023-07-26T19:05:48.850Z,100009.13
2023-07-26T19:08:51.285Z,100010.78
2023-07-26T19:11:53.760Z,100013.97
2023-07-26T19:14:56.303Z,99998.41
2023-07-26T19:17:58.990Z,100007.31
2023-07-26T19:21:02.490Z,100006.53
2023-07-26T19:24:06.318Z,99998.78
2023-07-26T19:27:08.739Z,100003.59
2023-07-26T19:30:12.371Z,100009.81
2023-07-26T19:33:14.743Z,99999.09
2023-07-26T19:36:17.116Z,100026.34
2023-07-26T19:39:19.494Z,100021.34
2023-07-26T19:42:23.037Z,100009.69
2023-07-26T19:45:25.527Z,100036.69
2023-07-26T19:48:28.593Z,100036.34
2023-07-26T19:51:30.975Z,100036.84
2023-07-26T19:54:34.031Z,100021.38
2023-07-26T19:57:36.435Z,100027.88
2023-07-26T20:00:39.346Z,100033.31
2023-07-26T20:03:42.257Z,100037.28
2023-07-26T20:06:51.012Z,100032.25
2023-07-26T20:09:53.492Z,100043.56
2023-07-26T20:12:56.044Z,100041.66
2023-07-26T20:15:58.590Z,100038.13
2023-07-26T20:19:00.947Z,100046.47
2023-07-26T20:22:03.451Z,100048.88
2023-07-26T20:25:06.072Z,100034.88
2023-07-26T20:28:08.426Z,100064.22
2023-07-26T20:31:10.772Z,100061.91
2023-07-26T20:34:13.187Z,100056.88
2023-07-26T20:37:15.606Z,100049.53
2023-07-26T20:40:17.952Z,100049.59
2023-07-26T20:43:20.378Z,100042.53
2023-07-26T20:46:22.842Z,100063.16
2023-07-26T20:49:25.213Z,100061.69
2023-07-26T20:52:27.572Z,100069.13
2023-07-26T20:55:30.070Z,100067.63
2023-07-26T20:58:32.501Z,100056.81
2023-07-26T21:01:35.132Z,100063.59
2023-07-26T21:04:37.735Z,100071.59
2023-07-26T21:07:40.083Z,100075.69
2023-07-26T21:10:43.359Z,100059.69
2023-07-26T21:13:45.786Z,100079.16
2023-07-26T21:16:48.337Z,100076.81
2023-07-26T21:19:50.844Z,100080.50
2023-07-26T21:22:53.225Z,100082.41
2023-07-26T21:25:55.584Z,100105.25
2023-07-26T21:28:57.978Z,100113.94
2023-07-26T21:32:03.155Z,100124.81
2023-07-26T21:35:06.233Z,100129.56
2023-07-26T21:38:08.624Z,100131.19
2023-07-26T21:41:10.938Z,100128.13
2023-07-26T21:44:13.294Z,100107.16
2023-07-26T21:47:15.676Z,100139.88
2023-07-26T21:50:18.211Z,100154.09
2023-07-26T21:53:20.585Z,100154.50
2023-07-26T21:56:23.587Z,100163.56
2023-07-26T21:59:26.874Z,100146.75
2023-07-26T22:02:29.301Z,100176.16
2023-07-26T22:05:31.721Z,100162.88
2023-07-26T22:08:34.121Z,100167.50
2023-07-26T22:11:36.514Z,100157.00
2023-07-26T22:14:38.916Z,100165.19
2023-07-26T22:17:41.783Z,100169.91
2023-07-26T22:21:01.896Z,100159.66
2023-07-26T22:24:06.863Z,100151.06
2023-07-26T22:27:09.297Z,100134.31
2023-07-26T22:30:11.821Z,100150.28
2023-07-26T22:33:14.323Z,100137.41
2023-07-26T22:36:16.694Z,100137.78
2023-07-26T22:39:19.232Z,100148.44
2023-07-26T22:42:21.613Z,100147.31
2023-07-26T22:45:24.035Z,100153.97
2023-07-26T22:48:26.430Z,100157.06
2023-07-26T22:51:29.392Z,100147.31
2023-07-26T22:54:33.938Z,100142.34
2023-07-26T22:57:36.452Z,100161.88
2023-07-26T23:00:38.785Z,100161.03
2023-07-26T23:03:44.443Z,100148.63
2023-07-26T23:06:46.847Z,100141.97
2023-07-26T23:09:49.271Z,100155.63
2023-07-26T23:12:51.668Z,100156.00
2023-07-26T23:15:54.140Z,100147.84
2023-07-26T23:18:56.513Z,100149.75
2023-07-26T23:21:58.953Z,100147.13
2023-07-26T23:25:01.349Z,100146.72
2023-07-26T23:28:03.947Z,100156.59
2023-07-26T23:31:07.830Z,100155.03
2023-07-26T23:34:10.217Z,100154.81
2023-07-26T23:37:12.634Z,100171.47
2023-07-26T23:40:15.210Z,100175.88
2023-07-26T23:43:17.571Z,100159.94
2023-07-26T23:46:19.966Z,100183.75
2023-07-26T23:49:22.350Z,100179.78
2023-07-26T23:52:24.851Z,100165.00
2023-07-26T23:55:27.385Z,100181.41
2023-07-26T23:58:29.827Z,100170.06
